createdAt,value
2023-03-04T00:01:32.814Z,100033.85
2023-03-04T00:04:00.825Z,100029.59
2023-03-04T00:06:28.839Z,100028.57
2023-03-04T00:08:57.014Z,100022.95
2023-03-04T00:11:25.527Z,100012.56
2023-03-04T00:13:53.568Z,100011.70
2023-03-04T00:16:21.696Z,100014.27
2023-03-04T00:18:49.719Z,100009.33
2023-03-04T00:21:17.693Z,100005.07
2023-03-04T00:23:45.750Z,100003.20
2023-03-04T00:26:15.157Z,100002.86
2023-03-04T00:28:43.834Z,100002.18
2023-03-04T00:31:12.351Z,100000.99
2023-03-04T00:33:40.694Z,100000.16
2023-03-04T00:36:08.970Z,100001.68
2023-03-04T00:38:36.955Z,99997.77
2023-03-04T00:41:05.332Z,99995.87
2023-03-04T00:43:33.490Z,99990.59
2023-03-04T00:46:01.570Z,99989.06
2023-03-04T00:48:31.267Z,99989.73
2023-03-04T00:50:59.374Z,99984.30
2023-03-04T00:53:27.412Z,99975.60
2023-03-04T00:55:55.489Z,99967.79
2023-03-04T00:58:23.578Z,99963.86
2023-03-04T01:00:52.656Z,99963.02
2023-03-04T01:03:20.975Z,99964.54
2023-03-04T01:05:49.009Z,99963.35
2023-03-04T01:08:17.779Z,99958.41
2023-03-04T01:10:46.219Z,99954.33
2023-03-04T01:13:14.231Z,99949.73
2023-03-04T01:15:42.206Z,99942.92
2023-03-04T01:18:10.262Z,99934.07
2023-03-04T01:20:38.341Z,99933.73
2023-03-04T01:23:06.413Z,99933.20
2023-03-04T01:25:34.402Z,99927.42
2023-03-04T01:28:02.556Z,99928.27
2023-03-04T01:30:30.657Z,99923.52
2023-03-04T01:32:59.113Z,99924.70
2023-03-04T01:35:27.225Z,99919.41
2023-03-04T01:37:55.213Z,99915.17
2023-03-04T01:40:23.216Z,99911.77
2023-03-04T01:42:51.294Z,99908.70
2023-03-04T01:45:20.192Z,99905.80
2023-03-04T01:47:50.195Z,99893.55
2023-03-04T01:50:33.217Z,99880.94
2023-03-04T01:53:03.887Z,99878.39
2023-03-04T01:55:32.460Z,99876.86
2023-03-04T01:58:01.010Z,99858.80
2023-03-04T02:00:32.414Z,99832.25
2023-03-04T02:03:05.250Z,99809.94
2023-03-04T02:05:34.444Z,99810.78
2023-03-04T02:08:04.872Z,99816.91
2023-03-04T02:10:33.965Z,99811.98
2023-03-04T02:13:02.964Z,99804.31
2023-03-04T02:15:31.335Z,99796.99
2023-03-04T02:18:00.329Z,99796.31
2023-03-04T02:21:06.916Z,99800.91
2023-03-04T02:24:04.364Z,99795.97
2023-03-04T02:26:35.347Z,99786.27
2023-03-04T02:29:04.828Z,99776.23
2023-03-04T02:31:36.117Z,99773.33
2023-03-04T02:34:09.958Z,99763.79
2023-03-04T02:36:39.388Z,99754.77
2023-03-04T02:39:13.531Z,99756.63
2023-03-04T02:41:43.521Z,99755.95
2023-03-04T02:44:35.023Z,99747.11
2023-03-04T02:47:05.902Z,99757.16
2023-03-04T02:49:35.885Z,99758.84
2023-03-04T02:52:10.241Z,99759.35
2023-03-04T02:54:39.689Z,99759.52
2023-03-04T02:57:10.486Z,99765.65
2023-03-04T02:59:41.869Z,99765.33
2023-03-04T03:02:11.790Z,99765.66
2023-03-04T03:04:41.350Z,99763.27
2023-03-04T03:07:11.613Z,99760.88
2023-03-04T03:09:39.603Z,99756.95
2023-03-04T03:12:07.862Z,99754.90
2023-03-04T03:14:36.037Z,99752.52
2023-03-04T03:17:04.360Z,99754.05
2023-03-04T03:19:32.684Z,99755.05
2023-03-04T03:22:01.986Z,99749.77
2023-03-04T03:24:29.965Z,99753.84
2023-03-04T03:26:57.930Z,99754.02
2023-03-04T03:29:26.440Z,99751.28
2023-03-04T03:31:54.562Z,99745.32
2023-03-04T03:34:22.952Z,99744.64
2023-03-04T03:36:51.353Z,99743.11
2023-03-04T03:39:19.297Z,99739.70
2023-03-04T03:41:47.267Z,99737.48
2023-03-04T03:44:15.446Z,99733.90
2023-03-04T03:46:43.409Z,99731.01
2023-03-04T03:49:11.585Z,99732.36
2023-03-04T03:51:39.551Z,99727.77
2023-03-04T03:54:07.621Z,99729.12
2023-03-04T03:56:35.793Z,99722.98
2023-03-04T03:59:03.766Z,99726.71
2023-03-04T04:01:31.734Z,99725.33
2023-03-04T04:04:00.428Z,99726.67
2023-03-04T04:06:28.489Z,99717.65
2023-03-04T04:08:56.875Z,99718.48
2023-03-04T04:11:24.938Z,99714.23
2023-03-04T04:13:52.968Z,99717.64
2023-03-04T04:16:21.001Z,99724.61
2023-03-04T04:18:49.151Z,99716.62
2023-03-04T04:21:17.152Z,99721.72
2023-03-04T04:23:45.189Z,99720.69
2023-03-04T04:26:13.162Z,99718.98
2023-03-04T04:28:41.150Z,99715.58
2023-03-04T04:31:10.371Z,99723.41
2023-03-04T04:33:38.499Z,99719.84
2023-03-04T04:36:07.208Z,99718.79
2023-03-04T04:38:35.353Z,99710.27
2023-03-04T04:41:04.112Z,99711.46
2023-03-04T04:43:32.107Z,99717.08
2023-03-04T04:46:00.621Z,99713.83
2023-03-04T04:48:28.667Z,99708.19
2023-03-04T04:50:56.836Z,99705.28
2023-03-04T04:53:25.009Z,99701.03
2023-03-04T04:55:53.188Z,99703.59
2023-03-04T04:58:21.159Z,99696.42
2023-03-04T05:00:49.637Z,99696.92
2023-03-04T05:03:18.672Z,99699.82
2023-03-04T05:05:47.105Z,99701.17
2023-03-04T05:08:15.184Z,99702.19
2023-03-04T05:10:43.252Z,99699.29
2023-03-04T05:13:11.320Z,99694.84
2023-03-04T05:15:39.698Z,99695.51
2023-03-04T05:18:07.880Z,99692.95
2023-03-04T05:20:36.289Z,99698.75
2023-03-04T05:23:04.322Z,99693.65
2023-03-04T05:25:32.397Z,99694.69
2023-03-04T05:28:02.264Z,99689.40
2023-03-04T05:30:30.285Z,99688.02
2023-03-04T05:32:58.349Z,99690.23
2023-03-04T05:35:28.870Z,99686.13
2023-03-04T05:37:57.886Z,99684.92
2023-03-04T05:40:26.030Z,99686.61
2023-03-04T05:42:54.020Z,99681.48
2023-03-04T05:45:21.988Z,99677.72
2023-03-04T05:47:50.369Z,99681.45
2023-03-04T05:50:18.904Z,99676.50
2023-03-04T05:52:47.139Z,99681.10
2023-03-04T05:55:16.113Z,99682.45
2023-03-04T05:57:44.909Z,99683.47
2023-03-04T06:00:14.776Z,99684.14
2023-03-04T06:02:43.841Z,99677.83
2023-03-04T06:05:14.140Z,99670.83
2023-03-04T06:07:43.413Z,99668.61
2023-03-04T06:10:14.315Z,99664.67
2023-03-04T06:12:43.125Z,99656.67
2023-03-04T06:15:13.041Z,99659.57
2023-03-04T06:17:43.536Z,99655.66
2023-03-04T06:20:12.497Z,99654.77
2023-03-04T06:22:40.862Z,99648.48
2023-03-04T06:25:09.710Z,99646.72
2023-03-04T06:27:37.723Z,99647.19
2023-03-04T06:30:07.010Z,99637.79
2023-03-04T06:32:35.174Z,99642.92
2023-03-04T06:35:03.367Z,99638.30
2023-03-04T06:37:31.378Z,99634.55
2023-03-04T06:39:59.322Z,99636.55
2023-03-04T06:42:27.380Z,99641.15
2023-03-04T06:44:55.591Z,99642.33
2023-03-04T06:47:23.622Z,99644.88
2023-03-04T06:49:52.923Z,99650.84
2023-03-04T06:52:20.997Z,99647.27
2023-03-04T06:54:48.953Z,99647.11
2023-03-04T06:57:17.060Z,99646.95
2023-03-04T06:59:45.023Z,99648.14
2023-03-04T07:02:13.501Z,99654.28
2023-03-04T07:04:41.970Z,99659.39
2023-03-04T07:07:11.979Z,99656.98
2023-03-04T07:09:40.354Z,99654.91
2023-03-04T07:12:08.346Z,99660.70
2023-03-04T07:14:36.392Z,99656.06
2023-03-04T07:17:04.641Z,99649.21
2023-03-04T07:19:32.516Z,99651.95
2023-03-04T07:22:00.395Z,99650.90
2023-03-04T07:24:28.307Z,99650.52
2023-03-04T07:26:56.259Z,99650.69
2023-03-04T07:29:24.132Z,99652.21
2023-03-04T07:31:53.721Z,99653.23
2023-03-04T07:34:21.884Z,99648.08
2023-03-04T07:36:49.836Z,99650.77
2023-03-04T07:39:17.825Z,99644.58
2023-03-04T07:41:45.681Z,99640.45
2023-03-04T07:44:13.910Z,99639.09
2023-03-04T07:46:41.932Z,99642.34
2023-03-04T07:49:12.871Z,99632.77
2023-03-04T07:51:40.944Z,99634.60
2023-03-04T07:54:10.445Z,99630.63
2023-03-04T07:56:38.661Z,99624.13
2023-03-04T07:59:06.905Z,99624.79
2023-03-04T08:01:37.235Z,99621.16
2023-03-04T08:04:07.695Z,99620.80
2023-03-04T08:06:36.130Z,99620.95
2023-03-04T08:09:06.571Z,99619.73
2023-03-04T08:11:36.988Z,99618.36
2023-03-04T08:14:05.566Z,99621.26
2023-03-04T08:16:33.633Z,99627.00
2023-03-04T08:19:03.575Z,99621.85
2023-03-04T08:21:32.332Z,99624.21
2023-03-04T08:24:08.435Z,99623.55
2023-03-04T08:26:42.091Z,99621.85
2023-03-04T08:29:14.264Z,99619.97
2023-03-04T08:31:43.225Z,99616.55
2023-03-04T08:34:13.081Z,99613.64
2023-03-04T08:36:44.086Z,99610.39
2023-03-04T08:39:13.688Z,99611.39
2023-03-04T08:41:42.091Z,99608.10
2023-03-04T08:44:13.263Z,99599.68
2023-03-04T08:46:43.147Z,99596.89
2023-03-04T08:49:13.198Z,99596.88
2023-03-04T08:51:41.156Z,99599.37
2023-03-04T08:54:09.201Z,99600.34
2023-03-04T08:56:38.448Z,99599.77
2023-03-04T08:59:06.376Z,99600.80
2023-03-04T09:01:34.357Z,99601.31
2023-03-04T09:04:02.433Z,99595.36
2023-03-04T09:06:30.588Z,99597.57
2023-03-04T09:08:59.696Z,99596.49
2023-03-04T09:11:27.653Z,99591.51
2023-03-04T09:13:55.735Z,99590.98
2023-03-04T09:16:23.856Z,99590.10
2023-03-04T09:18:51.868Z,99591.98
2023-03-04T09:21:20.246Z,99584.56
2023-03-04T09:23:48.167Z,99579.92
2023-03-04T09:26:27.261Z,99580.05
2023-03-04T09:28:59.016Z,99572.03
2023-03-04T09:31:28.440Z,99570.15
2023-03-04T09:33:57.936Z,99569.77
2023-03-04T09:36:26.006Z,99565.95
2023-03-04T09:38:54.246Z,99554.79
2023-03-04T09:41:27.356Z,99551.54
2023-03-04T09:43:57.172Z,99549.82
2023-03-04T09:46:38.701Z,99544.32
2023-03-04T09:49:07.600Z,99537.32
2023-03-04T09:51:35.710Z,99535.54
2023-03-04T09:54:14.928Z,99534.86
2023-03-04T09:56:43.101Z,99530.21
2023-03-04T09:59:39.065Z,99527.05
2023-03-04T10:02:36.074Z,99533.02
2023-03-04T10:05:07.323Z,99530.96
2023-03-04T10:07:41.554Z,99528.36
2023-03-04T10:10:24.934Z,99523.52
2023-03-04T10:12:55.176Z,99511.21
2023-03-04T10:15:39.973Z,99506.73
2023-03-04T10:18:28.132Z,99503.96
2023-03-04T10:21:29.472Z,99497.59
2023-03-04T10:23:59.835Z,99487.69
2023-03-04T10:26:33.171Z,99486.70
2023-03-04T10:29:03.283Z,99487.01
2023-03-04T10:31:36.903Z,99491.06
2023-03-04T10:34:07.136Z,99488.60
2023-03-04T10:36:55.477Z,99488.16
2023-03-04T10:39:32.220Z,99491.30
2023-03-04T10:42:15.491Z,99492.64
2023-03-04T10:44:52.793Z,99486.29
2023-03-04T10:47:24.817Z,99482.82
2023-03-04T10:49:56.930Z,99481.31
2023-03-04T10:52:32.124Z,99475.44
2023-03-04T10:55:14.705Z,99468.54
2023-03-04T10:57:44.849Z,99469.55
2023-03-04T11:00:18.596Z,99468.02
2023-03-04T11:02:48.278Z,99466.02
2023-03-04T11:05:17.755Z,99459.26
2023-03-04T11:07:56.351Z,99457.91
2023-03-04T11:10:31.421Z,99455.51
2023-03-04T11:12:59.351Z,99452.65
2023-03-04T11:15:31.465Z,99452.13
2023-03-04T11:18:22.472Z,99451.64
2023-03-04T11:20:51.314Z,99450.82
2023-03-04T11:23:19.169Z,99451.17
2023-03-04T11:25:56.537Z,99446.40
2023-03-04T11:28:35.034Z,99445.38
2023-03-04T11:31:16.688Z,99443.59
2023-03-04T11:33:54.089Z,99446.91
2023-03-04T11:36:33.229Z,99444.20
2023-03-04T11:39:03.554Z,99440.48
2023-03-04T11:41:47.272Z,99438.27
2023-03-04T11:44:15.295Z,99438.87
2023-03-04T11:47:07.823Z,99439.98
2023-03-04T11:50:04.260Z,99439.84
2023-03-04T11:52:47.357Z,99436.70
2023-03-04T11:55:56.522Z,99438.09
2023-03-04T11:58:39.411Z,99432.38
2023-03-04T12:01:19.651Z,99428.58
2023-03-04T12:03:57.847Z,99435.67
2023-03-04T12:06:48.792Z,99425.52
2023-03-04T12:09:45.624Z,99427.47
2023-03-04T12:12:25.780Z,99427.04
2023-03-04T12:15:02.074Z,99425.69
2023-03-04T12:17:30.741Z,99425.46
2023-03-04T12:20:24.770Z,99428.59
2023-03-04T12:23:03.838Z,99418.94
2023-03-04T12:25:52.795Z,99414.34
2023-03-04T12:28:39.309Z,99414.04
2023-03-04T12:31:07.289Z,99406.89
2023-03-04T12:33:56.844Z,99410.17
2023-03-04T12:36:44.066Z,99408.73
2023-03-04T12:39:27.300Z,99404.77
2023-03-04T12:42:18.207Z,99400.48
2023-03-04T12:45:01.829Z,99400.28
2023-03-04T12:47:48.948Z,99395.11
2023-03-04T12:50:38.554Z,99390.88
2023-03-04T12:53:32.808Z,99395.77
2023-03-04T12:56:03.271Z,99391.71
2023-03-04T12:58:34.007Z,99386.29
2023-03-04T13:01:16.180Z,99387.86
2023-03-04T13:04:03.597Z,99393.67
2023-03-04T13:06:43.891Z,99401.84
2023-03-04T13:09:16.967Z,99414.33
2023-03-04T13:11:50.549Z,99419.02
2023-03-04T13:14:21.277Z,99406.79
2023-03-04T13:16:54.021Z,99408.36
2023-03-04T13:19:44.581Z,99406.20
2023-03-04T13:22:45.289Z,99399.05
2023-03-04T13:25:33.749Z,99399.69
2023-03-04T13:28:10.971Z,99398.94
2023-03-04T13:30:38.993Z,99397.56
2023-03-04T13:33:16.233Z,99403.08
2023-03-04T13:35:50.279Z,99400.88
2023-03-04T13:38:38.773Z,99401.00
2023-03-04T13:41:32.048Z,99403.89
2023-03-04T13:44:02.218Z,99397.59
2023-03-04T13:46:40.817Z,99396.33
2023-03-04T13:49:22.427Z,99394.00
2023-03-04T13:51:51.570Z,99391.34
2023-03-04T13:54:19.752Z,99391.11
2023-03-04T13:57:16.875Z,99391.67
2023-03-04T13:59:49.585Z,99396.42
2023-03-04T14:02:22.656Z,99394.83
2023-03-04T14:04:53.971Z,99392.69
2023-03-04T14:07:35.613Z,99396.48
2023-03-04T14:10:12.690Z,99397.02
2023-03-04T14:12:49.619Z,99389.30
2023-03-04T14:15:17.480Z,99388.05
2023-03-04T14:17:49.270Z,99387.22
2023-03-04T14:20:23.457Z,99389.86
2023-03-04T14:22:51.938Z,99388.25
2023-03-04T14:25:22.593Z,99394.38
2023-03-04T14:28:01.696Z,99391.84
2023-03-04T14:30:42.181Z,99390.61
2023-03-04T14:33:31.247Z,99384.27
2023-03-04T14:36:02.684Z,99383.29
2023-03-04T14:38:41.814Z,99382.05
2023-03-04T14:41:18.739Z,99378.63
2023-03-04T14:44:08.970Z,99387.05
2023-03-04T14:46:44.189Z,99394.79
2023-03-04T14:49:15.666Z,99401.45
2023-03-04T14:51:47.370Z,99402.86
2023-03-04T14:54:28.906Z,99402.74
2023-03-04T14:56:58.822Z,99401.99
2023-03-04T14:59:32.498Z,99399.98
2023-03-04T15:02:43.559Z,99401.63
2023-03-04T15:05:25.832Z,99404.59
2023-03-04T15:08:00.704Z,99405.14
2023-03-04T15:10:39.253Z,99407.55
2023-03-04T15:13:09.466Z,99405.61
2023-03-04T15:15:44.380Z,99407.36
2023-03-04T15:18:21.284Z,99409.58
2023-03-04T15:21:21.610Z,99405.30
2023-03-04T15:23:49.599Z,99414.81
2023-03-04T15:26:17.953Z,99413.98
2023-03-04T15:28:46.048Z,99414.59
2023-03-04T15:31:19.980Z,99416.14
2023-03-04T15:33:48.821Z,99421.34
2023-03-04T15:36:20.206Z,99416.34
2023-03-04T15:38:51.887Z,99425.16
2023-03-04T15:41:25.568Z,99429.70
2023-03-04T15:43:54.738Z,99429.53
2023-03-04T15:46:23.165Z,99443.15
2023-03-04T15:48:51.402Z,99442.36
2023-03-04T15:51:22.869Z,99452.50
2023-03-04T15:53:56.970Z,99475.30
2023-03-04T15:56:28.947Z,99465.17
2023-03-04T15:59:01.310Z,99471.61
2023-03-04T16:01:29.745Z,99478.84
2023-03-04T16:03:57.879Z,99483.31
2023-03-04T16:06:30.061Z,99490.73
2023-03-04T16:08:59.397Z,99502.95
2023-03-04T16:11:30.336Z,99511.66
2023-03-04T16:14:00.331Z,99526.16
2023-03-04T16:16:28.210Z,99543.91
2023-03-04T16:18:56.290Z,99546.63
2023-03-04T16:21:24.260Z,99541.30
2023-03-04T16:23:54.503Z,99553.05
2023-03-04T16:26:25.352Z,99562.94
2023-03-04T16:28:54.337Z,99560.31
2023-03-04T16:31:22.840Z,99567.62
2023-03-04T16:33:51.181Z,99566.23
2023-03-04T16:36:23.441Z,99568.23
2023-03-04T16:38:54.707Z,99580.66
2023-03-04T16:41:26.540Z,99588.90
2023-03-04T16:43:56.967Z,99612.51
2023-03-04T16:46:25.188Z,99614.27
2023-03-04T16:48:53.216Z,99612.77
2023-03-04T16:51:23.655Z,99610.62
2023-03-04T16:54:02.039Z,99623.44
2023-03-04T16:56:30.062Z,99631.49
2023-03-04T16:58:58.006Z,99635.11
2023-03-04T17:01:28.947Z,99635.66
2023-03-04T17:03:57.561Z,99647.80
2023-03-04T17:06:25.892Z,99651.10
2023-03-04T17:08:53.960Z,99651.99
2023-03-04T17:11:23.710Z,99657.66
2023-03-04T17:13:52.041Z,99659.07
2023-03-04T17:16:20.159Z,99664.21
2023-03-04T17:18:48.924Z,99662.52
2023-03-04T17:21:20.073Z,99662.21
2023-03-04T17:23:48.658Z,99674.84
2023-03-04T17:26:21.034Z,99680.98
2023-03-04T17:28:50.602Z,99687.29
2023-03-04T17:31:20.629Z,99682.38
2023-03-04T17:33:49.004Z,99691.91
2023-03-04T17:36:18.926Z,99696.86
2023-03-04T17:38:49.692Z,99694.48
2023-03-04T17:41:18.964Z,99700.45
2023-03-04T17:43:49.714Z,99706.92
2023-03-04T17:46:23.173Z,99709.31
2023-03-04T17:48:56.360Z,99721.92
2023-03-04T17:51:36.333Z,99718.86
2023-03-04T17:54:06.809Z,99720.07
2023-03-04T17:56:37.296Z,99721.09
2023-03-04T17:59:09.142Z,99724.48
2023-03-04T18:01:37.313Z,99726.71
2023-03-04T18:04:06.121Z,99729.94
2023-03-04T18:06:34.175Z,99732.84
2023-03-04T18:09:02.185Z,99735.05
2023-03-04T18:11:31.344Z,99742.88
2023-03-04T18:13:59.509Z,99748.33
2023-03-04T18:16:29.122Z,99751.22
2023-03-04T18:18:59.873Z,99753.44
2023-03-04T18:21:29.901Z,99757.52
2023-03-04T18:23:58.390Z,99762.80
2023-03-04T18:26:27.057Z,99765.69
2023-03-04T18:28:56.443Z,99769.77
2023-03-04T18:31:34.247Z,99776.58
2023-03-04T18:34:07.571Z,99771.13
2023-03-04T18:36:35.604Z,99773.52
2023-03-04T18:39:05.793Z,99777.42
2023-03-04T18:41:33.931Z,99777.25
2023-03-04T18:44:02.171Z,99781.85
2023-03-04T18:46:55.846Z,99783.36
2023-03-04T18:49:24.356Z,99789.31
2023-03-04T18:51:52.403Z,99794.41
2023-03-04T18:54:20.672Z,99791.86
2023-03-04T18:56:59.703Z,99800.86
2023-03-04T18:59:33.661Z,99795.24
2023-03-04T19:02:05.489Z,99799.15
2023-03-04T19:04:33.967Z,99803.40
2023-03-04T19:07:01.949Z,99808.83
2023-03-04T19:09:29.997Z,99814.11
2023-03-04T19:11:58.068Z,99815.29
2023-03-04T19:14:25.974Z,99820.04
2023-03-04T19:16:54.021Z,99823.43
2023-03-04T19:19:22.111Z,99820.20
2023-03-04T19:21:50.148Z,99821.20
2023-03-04T19:24:18.211Z,99824.08
2023-03-04T19:26:46.237Z,99828.16
2023-03-04T19:29:15.383Z,99826.96
2023-03-04T19:31:43.552Z,99836.98
2023-03-04T19:34:12.244Z,99837.66
2023-03-04T19:36:40.313Z,99834.24
2023-03-04T19:39:10.150Z,99840.70
2023-03-04T19:41:38.494Z,99840.01
2023-03-04T19:44:06.563Z,99845.62
2023-03-04T19:46:34.947Z,99848.00
2023-03-04T19:49:04.792Z,99848.48
2023-03-04T19:51:33.251Z,99850.66
2023-03-04T19:54:02.070Z,99855.08
2023-03-04T19:56:30.653Z,99850.48
2023-03-04T19:58:58.881Z,99855.88
2023-03-04T20:01:30.473Z,99853.14
2023-03-04T20:04:02.196Z,99858.21
2023-03-04T20:06:30.778Z,99857.02
2023-03-04T20:09:00.823Z,99859.02
2023-03-04T20:11:30.106Z,99859.35
2023-03-04T20:14:00.414Z,99859.30
2023-03-04T20:16:29.428Z,99861.63
2023-03-04T20:18:58.428Z,99859.53
2023-03-04T20:21:29.774Z,99860.50
2023-03-04T20:24:00.839Z,99866.04
2023-03-04T20:26:30.728Z,99861.55
2023-03-04T20:28:59.998Z,99861.31
2023-03-04T20:31:31.557Z,99857.70
2023-03-04T20:34:00.295Z,99858.33
2023-03-04T20:36:29.871Z,99857.42
2023-03-04T20:39:02.432Z,99857.55
2023-03-04T20:41:32.750Z,99862.06
2023-03-04T20:44:01.430Z,99862.17
2023-03-04T20:46:39.918Z,99862.98
2023-03-04T20:49:16.778Z,99862.25
2023-03-04T20:51:44.791Z,99863.21
2023-03-04T20:54:12.761Z,99863.81
2023-03-04T20:56:41.260Z,99864.09
2023-03-04T20:59:11.653Z,99865.06
2023-03-04T21:01:42.091Z,99863.30
2023-03-04T21:04:11.158Z,99863.27
2023-03-04T21:06:40.730Z,99861.88
2023-03-04T21:09:13.478Z,99865.71
2023-03-04T21:11:42.300Z,99867.70
2023-03-04T21:14:16.325Z,99871.57
2023-03-04T21:16:44.205Z,99869.98
2023-03-04T21:19:18.735Z,99870.95
2023-03-04T21:21:48.908Z,99867.67
2023-03-04T21:24:19.608Z,99873.05
2023-03-04T21:26:48.541Z,99867.62
2023-03-04T21:29:19.253Z,99871.45
2023-03-04T21:31:50.439Z,99867.33
2023-03-04T21:34:22.775Z,99864.74
2023-03-04T21:36:51.654Z,99863.85
2023-03-04T21:39:23.014Z,99865.17
2023-03-04T21:41:52.965Z,99871.23
2023-03-04T21:44:28.355Z,99870.69
2023-03-04T21:46:58.049Z,99872.38
2023-03-04T21:49:26.581Z,99868.77
2023-03-04T21:51:54.852Z,99873.96
2023-03-04T21:54:23.358Z,99877.48
2023-03-04T21:56:51.607Z,99876.91
2023-03-04T21:59:19.777Z,99874.69
2023-03-04T22:01:47.918Z,99870.25
2023-03-04T22:04:16.025Z,99868.36
2023-03-04T22:06:43.993Z,99868.47
2023-03-04T22:09:13.193Z,99866.76
2023-03-04T22:11:41.370Z,99867.04
2023-03-04T22:14:10.840Z,99866.98
2023-03-04T22:16:56.188Z,99868.45
2023-03-04T22:19:26.490Z,99868.74
2023-03-04T22:21:54.557Z,99869.55
2023-03-04T22:24:23.046Z,99870.38
2023-03-04T22:26:51.198Z,99869.81
2023-03-04T22:29:19.171Z,99869.23
2023-03-04T22:31:47.225Z,99868.19
2023-03-04T22:34:16.034Z,99868.48
2023-03-04T22:36:45.777Z,99868.09
2023-03-04T22:39:19.382Z,99872.30
2023-03-04T22:41:48.172Z,99871.59
2023-03-04T22:44:16.969Z,99871.70
2023-03-04T22:46:45.202Z,99874.61
2023-03-04T22:49:14.591Z,99874.91
2023-03-04T22:51:44.711Z,99868.59
2023-03-04T22:54:16.534Z,99874.80
2023-03-04T22:56:45.566Z,99869.32
2023-03-04T22:59:14.743Z,99871.14
2023-03-04T23:01:43.261Z,99868.70
2023-03-04T23:04:12.022Z,99869.15
2023-03-04T23:06:40.402Z,99876.05
2023-03-04T23:09:08.522Z,99870.92
2023-03-04T23:11:37.491Z,99870.20
2023-03-04T23:14:08.626Z,99872.49
2023-03-04T23:16:42.436Z,99872.95
2023-03-04T23:19:16.197Z,99874.77
2023-03-04T23:21:44.505Z,99875.08
2023-03-04T23:24:14.182Z,99874.34
2023-03-04T23:26:43.503Z,99871.92
2023-03-04T23:29:15.183Z,99872.74
2023-03-04T23:31:44.619Z,99866.96
2023-03-04T23:34:13.666Z,99870.13
2023-03-04T23:36:42.445Z,99869.05
2023-03-04T23:39:12.452Z,99865.94
2023-03-04T23:41:40.703Z,99862.34
2023-03-04T23:44:08.710Z,99862.63
2023-03-04T23:46:37.907Z,99857.66
2023-03-04T23:49:07.935Z,99858.46
2023-03-04T23:51:36.441Z,99858.41
2023-03-04T23:54:04.675Z,99859.05
2023-03-04T23:56:32.781Z,99858.36
2023-03-04T23:59:01.122Z,99859.30
